DBEEP EDDK-EDDP
Flight info
| Callsign | DBEEP |
|---|---|
| Flight time | 0h 35m |
| Altitude | 31000 |
| Route | PODIP1R PODIP Y867 ROSUX Z858 BERDI T958 KOJEC KOJEC1R |
| Aircraft | C750/M-SBDFGHIRWYZ/IB1 |
Departure
| Time | 2026-05-07 01:44 |
|---|---|
| Airport | Cologne Bonn Airport (EDDK) |
Arrival
| Time | 2026-05-07 02:19 |
|---|---|
| Airport | Leipzig/Halle Airport (EDDP) |
| Time | Latitude | Longitude | Altitude | Speed | Heading |
|---|---|---|---|---|---|
| 2026-05-07 01:27 | 50.87244 | 7.12481 | 244 ft | 0 kts | 317° |
| 2026-05-07 01:30 | 50.87242 | 7.12483 | 229 ft | 2 kts | 317° |
| 2026-05-07 01:30 | 50.87223 | 7.12510 | 230 ft | 4 kts | 317° |
| 2026-05-07 01:31 | 50.87210 | 7.12529 | 229 ft | 4 kts | 274° |
| 2026-05-07 01:31 | 50.87219 | 7.12555 | 230 ft | 4 kts | 227° |
| 2026-05-07 01:31 | 50.87223 | 7.12562 | 230 ft | 0 kts | 227° |
| 2026-05-07 01:35 | 50.87219 | 7.12556 | 230 ft | 4 kts | 227° |
| 2026-05-07 01:35 | 50.87178 | 7.12484 | 229 ft | 11 kts | 227° |
| 2026-05-07 01:36 | 50.87123 | 7.12405 | 229 ft | 10 kts | 193° |
| 2026-05-07 01:36 | 50.87065 | 7.12466 | 229 ft | 13 kts | 137° |
| 2026-05-07 01:36 | 50.86991 | 7.12573 | 231 ft | 15 kts | 137° |
| 2026-05-07 01:36 | 50.86918 | 7.12678 | 233 ft | 13 kts | 137° |
| 2026-05-07 01:37 | 50.86844 | 7.12785 | 236 ft | 19 kts | 137° |
| 2026-05-07 01:37 | 50.86751 | 7.12921 | 238 ft | 17 kts | 137° |
| 2026-05-07 01:37 | 50.86669 | 7.13040 | 241 ft | 15 kts | 137° |
| 2026-05-07 01:37 | 50.86598 | 7.13142 | 244 ft | 13 kts | 137° |
| 2026-05-07 01:38 | 50.86507 | 7.13278 | 245 ft | 22 kts | 124° |
| 2026-05-07 01:38 | 50.86540 | 7.13493 | 245 ft | 21 kts | 64° |
| 2026-05-07 01:38 | 50.86601 | 7.13695 | 246 ft | 20 kts | 64° |
| 2026-05-07 01:38 | 50.86656 | 7.13875 | 250 ft | 17 kts | 64° |
| 2026-05-07 01:39 | 50.86702 | 7.14029 | 252 ft | 15 kts | 64° |
| 2026-05-07 01:39 | 50.86711 | 7.14171 | 254 ft | 13 kts | 131° |
| 2026-05-07 01:39 | 50.86604 | 7.14323 | 258 ft | 28 kts | 138° |
| 2026-05-07 01:39 | 50.86459 | 7.14538 | 265 ft | 27 kts | 137° |
| 2026-05-07 01:40 | 50.86332 | 7.14718 | 272 ft | 23 kts | 138° |
| 2026-05-07 01:40 | 50.86211 | 7.14893 | 279 ft | 29 kts | 137° |
| 2026-05-07 01:40 | 50.86068 | 7.15101 | 285 ft | 26 kts | 137° |
| 2026-05-07 01:40 | 50.85940 | 7.15287 | 292 ft | 24 kts | 137° |
| 2026-05-07 01:41 | 50.85825 | 7.15454 | 293 ft | 21 kts | 137° |
| 2026-05-07 01:41 | 50.85723 | 7.15601 | 297 ft | 19 kts | 137° |
| 2026-05-07 01:41 | 50.85634 | 7.15732 | 300 ft | 16 kts | 137° |
| 2026-05-07 01:41 | 50.85555 | 7.15845 | 302 ft | 14 kts | 137° |
| 2026-05-07 01:42 | 50.85488 | 7.15942 | 304 ft | 12 kts | 137° |
| 2026-05-07 01:42 | 50.85425 | 7.16034 | 304 ft | 12 kts | 137° |
| 2026-05-07 01:42 | 50.85365 | 7.16126 | 304 ft | 12 kts | 128° |
| 2026-05-07 01:42 | 50.85337 | 7.16244 | 306 ft | 12 kts | 98° |
| 2026-05-07 01:43 | 50.85348 | 7.16367 | 305 ft | 11 kts | 65° |
| 2026-05-07 01:43 | 50.85413 | 7.16485 | 310 ft | 19 kts | 27° |
| 2026-05-07 01:43 | 50.85566 | 7.16491 | 311 ft | 23 kts | 333° |
| 2026-05-07 01:43 | 50.85792 | 7.16175 | 308 ft | 91 kts | 317° |
| 2026-05-07 01:44 | 50.86423 | 7.15260 | 494 ft | 134 kts | 317° |
| 2026-05-07 01:44 | 50.87143 | 7.14249 | 1121 ft | 141 kts | 319° |
| 2026-05-07 01:44 | 50.87877 | 7.13223 | 1904 ft | 140 kts | 321° |
| 2026-05-07 01:44 | 50.88598 | 7.12161 | 2559 ft | 146 kts | 321° |
| 2026-05-07 01:45 | 50.89494 | 7.11190 | 2843 ft | 171 kts | 341° |
| 2026-05-07 01:45 | 50.90759 | 7.10970 | 3040 ft | 199 kts | 7° |
| 2026-05-07 01:45 | 50.92043 | 7.11944 | 3800 ft | 204 kts | 36° |
| 2026-05-07 01:45 | 50.93127 | 7.13372 | 4841 ft | 205 kts | 39° |
| 2026-05-07 01:46 | 50.93968 | 7.15309 | 5412 ft | 228 kts | 60° |
| 2026-05-07 01:46 | 50.94696 | 7.17694 | 5870 ft | 253 kts | 61° |
| 2026-05-07 01:46 | 50.95500 | 7.20262 | 6626 ft | 262 kts | 61° |
| 2026-05-07 01:46 | 50.96316 | 7.22820 | 7572 ft | 267 kts | 60° |
| 2026-05-07 01:47 | 50.97162 | 7.25490 | 8502 ft | 275 kts | 60° |
| 2026-05-07 01:47 | 50.98028 | 7.28231 | 9438 ft | 282 kts | 60° |
| 2026-05-07 01:47 | 50.98920 | 7.31052 | 10179 ft | 291 kts | 60° |
| 2026-05-07 01:47 | 50.99866 | 7.34040 | 10383 ft | 316 kts | 61° |
| 2026-05-07 01:48 | 51.00890 | 7.37285 | 10420 ft | 336 kts | 61° |
| 2026-05-07 01:48 | 51.01699 | 7.40874 | 10455 ft | 358 kts | 80° |
| 2026-05-07 01:48 | 51.01572 | 7.44811 | 11202 ft | 358 kts | 100° |
| 2026-05-07 01:48 | 51.00885 | 7.48628 | 11988 ft | 361 kts | 107° |
| 2026-05-07 01:49 | 51.00090 | 7.52429 | 12841 ft | 365 kts | 108° |
| 2026-05-07 01:49 | 50.99310 | 7.56292 | 13631 ft | 369 kts | 106° |
| 2026-05-07 01:49 | 50.98569 | 7.60202 | 14375 ft | 372 kts | 105° |
| 2026-05-07 01:49 | 50.97807 | 7.64157 | 15040 ft | 377 kts | 107° |
| 2026-05-07 01:50 | 50.97009 | 7.68144 | 15709 ft | 382 kts | 107° |
| 2026-05-07 01:50 | 50.96202 | 7.72178 | 16462 ft | 385 kts | 107° |
| 2026-05-07 01:50 | 50.95406 | 7.76246 | 17247 ft | 388 kts | 107° |
| 2026-05-07 01:50 | 50.95009 | 7.80504 | 17787 ft | 396 kts | 89° |
| 2026-05-07 01:51 | 50.95508 | 7.84792 | 18571 ft | 398 kts | 71° |
| 2026-05-07 01:51 | 50.96750 | 7.88716 | 19273 ft | 400 kts | 60° |
| 2026-05-07 01:51 | 50.98163 | 7.92487 | 19946 ft | 405 kts | 58° |
| 2026-05-07 01:51 | 50.99621 | 7.96330 | 20697 ft | 408 kts | 59° |
| 2026-05-07 01:52 | 51.01062 | 8.00243 | 21343 ft | 414 kts | 60° |
| 2026-05-07 01:52 | 51.02505 | 8.04213 | 22076 ft | 416 kts | 60° |
| 2026-05-07 01:52 | 51.03977 | 8.08209 | 22726 ft | 422 kts | 59° |
| 2026-05-07 01:52 | 51.05437 | 8.12267 | 23351 ft | 426 kts | 64° |
| 2026-05-07 01:53 | 51.06296 | 8.16790 | 23827 ft | 429 kts | 78° |
| 2026-05-07 01:53 | 51.06957 | 8.21423 | 24451 ft | 431 kts | 77° |
| 2026-05-07 01:53 | 51.07727 | 8.26048 | 25020 ft | 435 kts | 75° |
| 2026-05-07 01:53 | 51.08545 | 8.30700 | 25582 ft | 438 kts | 76° |
| 2026-05-07 01:54 | 51.09307 | 8.35404 | 26172 ft | 441 kts | 77° |
| 2026-05-07 01:54 | 51.10039 | 8.40173 | 26715 ft | 445 kts | 77° |
| 2026-05-07 01:54 | 51.10805 | 8.44962 | 27303 ft | 448 kts | 76° |
| 2026-05-07 01:54 | 51.11601 | 8.49780 | 27874 ft | 452 kts | 76° |
| 2026-05-07 01:55 | 51.12387 | 8.54643 | 28464 ft | 456 kts | 77° |
| 2026-05-07 01:55 | 51.13159 | 8.59551 | 29104 ft | 456 kts | 77° |
| 2026-05-07 01:55 | 51.13914 | 8.64313 | 29704 ft | 439 kts | 77° |
| 2026-05-07 01:55 | 51.14660 | 8.68984 | 30165 ft | 444 kts | 77° |
| 2026-05-07 01:56 | 51.15426 | 8.73811 | 30405 ft | 454 kts | 77° |
| 2026-05-07 01:56 | 51.16199 | 8.78735 | 30646 ft | 462 kts | 77° |
| 2026-05-07 01:56 | 51.16982 | 8.83723 | 30884 ft | 463 kts | 77° |
| 2026-05-07 01:57 | 51.18558 | 8.93759 | 30882 ft | 467 kts | 77° |
| 2026-05-07 01:57 | 51.20120 | 9.03815 | 30877 ft | 467 kts | 77° |
| 2026-05-07 01:58 | 51.21680 | 9.13885 | 30875 ft | 468 kts | 77° |
| 2026-05-07 01:58 | 51.23239 | 9.24013 | 30889 ft | 470 kts | 77° |
| 2026-05-07 01:59 | 51.24792 | 9.34151 | 30893 ft | 470 kts | 77° |
| 2026-05-07 01:59 | 51.26320 | 9.44298 | 30892 ft | 470 kts | 78° |
| 2026-05-07 02:00 | 51.27624 | 9.54448 | 30871 ft | 467 kts | 86° |
| 2026-05-07 02:00 | 51.27910 | 9.59636 | 30385 ft | 466 kts | 86° |
| 2026-05-07 02:00 | 51.28226 | 9.64789 | 29744 ft | 467 kts | 85° |
| 2026-05-07 02:00 | 51.28561 | 9.69954 | 29114 ft | 470 kts | 85° |
| 2026-05-07 02:01 | 51.28873 | 9.75138 | 28496 ft | 467 kts | 86° |
| 2026-05-07 02:01 | 51.29166 | 9.80287 | 27870 ft | 463 kts | 86° |
| 2026-05-07 02:01 | 51.29463 | 9.85388 | 27263 ft | 460 kts | 86° |
| 2026-05-07 02:01 | 51.29766 | 9.90446 | 26662 ft | 456 kts | 85° |
| 2026-05-07 02:02 | 51.30063 | 9.95484 | 26060 ft | 453 kts | 86° |
| 2026-05-07 02:02 | 51.30347 | 10.00486 | 25458 ft | 449 kts | 86° |
| 2026-05-07 02:02 | 51.30628 | 10.05437 | 24870 ft | 447 kts | 86° |
| 2026-05-07 02:02 | 51.30910 | 10.10356 | 24282 ft | 442 kts | 86° |
| 2026-05-07 02:03 | 51.31185 | 10.15227 | 23708 ft | 439 kts | 86° |
| 2026-05-07 02:03 | 51.31454 | 10.20011 | 23090 ft | 436 kts | 86° |
| 2026-05-07 02:03 | 51.31719 | 10.24804 | 22513 ft | 433 kts | 86° |
| 2026-05-07 02:03 | 51.31981 | 10.29590 | 21944 ft | 429 kts | 86° |
| 2026-05-07 02:04 | 51.32241 | 10.34332 | 21376 ft | 426 kts | 86° |
| 2026-05-07 02:04 | 51.32497 | 10.39036 | 20816 ft | 423 kts | 86° |
| 2026-05-07 02:04 | 51.32749 | 10.43703 | 20264 ft | 420 kts | 86° |
| 2026-05-07 02:04 | 51.32996 | 10.48340 | 19710 ft | 417 kts | 86° |
| 2026-05-07 02:05 | 51.33241 | 10.52947 | 19164 ft | 414 kts | 86° |
| 2026-05-07 02:05 | 51.33483 | 10.57540 | 18601 ft | 414 kts | 86° |
| 2026-05-07 02:05 | 51.33721 | 10.62077 | 18060 ft | 408 kts | 86° |
| 2026-05-07 02:05 | 51.33955 | 10.66580 | 17497 ft | 405 kts | 86° |
| 2026-05-07 02:06 | 51.34185 | 10.71055 | 16965 ft | 402 kts | 86° |
| 2026-05-07 02:06 | 51.34412 | 10.75495 | 16436 ft | 399 kts | 86° |
| 2026-05-07 02:06 | 51.34636 | 10.79909 | 15910 ft | 397 kts | 86° |
| 2026-05-07 02:06 | 51.34857 | 10.84287 | 15390 ft | 394 kts | 86° |
| 2026-05-07 02:07 | 51.35074 | 10.88643 | 14870 ft | 391 kts | 87° |
| 2026-05-07 02:07 | 51.35501 | 10.97275 | 13844 ft | 387 kts | 87° |
| 2026-05-07 02:07 | 51.35710 | 11.01554 | 13305 ft | 384 kts | 87° |
| 2026-05-07 02:08 | 51.35915 | 11.05787 | 12796 ft | 380 kts | 87° |
| 2026-05-07 02:08 | 51.36117 | 11.09970 | 12299 ft | 375 kts | 86° |
| 2026-05-07 02:08 | 51.36315 | 11.14103 | 11807 ft | 372 kts | 86° |
| 2026-05-07 02:08 | 51.36510 | 11.18218 | 11318 ft | 369 kts | 86° |
| 2026-05-07 02:09 | 51.36702 | 11.22284 | 10967 ft | 356 kts | 86° |
| 2026-05-07 02:09 | 51.36880 | 11.26043 | 10709 ft | 324 kts | 86° |
| 2026-05-07 02:09 | 51.37042 | 11.29522 | 10446 ft | 305 kts | 86° |
| 2026-05-07 02:09 | 51.37195 | 11.32867 | 9861 ft | 304 kts | 86° |
| 2026-05-07 02:10 | 51.37347 | 11.36207 | 9199 ft | 297 kts | 86° |
| 2026-05-07 02:10 | 51.37496 | 11.39461 | 8776 ft | 291 kts | 86° |
| 2026-05-07 02:10 | 51.37643 | 11.42683 | 8430 ft | 288 kts | 86° |
| 2026-05-07 02:10 | 51.37785 | 11.45867 | 8143 ft | 287 kts | 86° |
| 2026-05-07 02:11 | 51.37923 | 11.49025 | 7780 ft | 287 kts | 86° |
| 2026-05-07 02:11 | 51.38058 | 11.52210 | 7395 ft | 285 kts | 86° |
| 2026-05-07 02:11 | 51.38186 | 11.55369 | 6975 ft | 283 kts | 86° |
| 2026-05-07 02:11 | 51.38258 | 11.58504 | 6557 ft | 281 kts | 88° |
| 2026-05-07 02:12 | 51.38373 | 11.61632 | 6180 ft | 282 kts | 86° |
| 2026-05-07 02:12 | 51.38513 | 11.64731 | 5785 ft | 279 kts | 85° |
| 2026-05-07 02:12 | 51.38657 | 11.67799 | 5405 ft | 277 kts | 85° |
| 2026-05-07 02:12 | 51.38803 | 11.70871 | 5007 ft | 276 kts | 86° |
| 2026-05-07 02:13 | 51.38952 | 11.73936 | 4560 ft | 274 kts | 85° |
| 2026-05-07 02:13 | 51.39100 | 11.76957 | 4089 ft | 269 kts | 85° |
| 2026-05-07 02:13 | 51.39242 | 11.79903 | 3816 ft | 258 kts | 86° |
| 2026-05-07 02:13 | 51.39375 | 11.82682 | 3553 ft | 243 kts | 86° |
| 2026-05-07 02:14 | 51.39499 | 11.85294 | 3292 ft | 234 kts | 86° |
| 2026-05-07 02:14 | 51.39620 | 11.87846 | 3019 ft | 226 kts | 86° |
| 2026-05-07 02:14 | 51.39736 | 11.90255 | 2979 ft | 207 kts | 86° |
| 2026-05-07 02:14 | 51.39842 | 11.92484 | 2984 ft | 196 kts | 86° |
| 2026-05-07 02:15 | 51.39943 | 11.94639 | 2986 ft | 193 kts | 86° |
| 2026-05-07 02:15 | 51.40043 | 11.96767 | 2989 ft | 191 kts | 86° |
| 2026-05-07 02:15 | 51.40143 | 11.98886 | 2992 ft | 190 kts | 86° |
| 2026-05-07 02:15 | 51.40242 | 12.00986 | 2885 ft | 187 kts | 86° |
| 2026-05-07 02:16 | 51.40307 | 12.02355 | 2735 ft | 183 kts | 86° |
| 2026-05-07 02:16 | 51.40400 | 12.04327 | 2480 ft | 172 kts | 85° |
| 2026-05-07 02:16 | 51.40489 | 12.06195 | 2251 ft | 164 kts | 88° |
| 2026-05-07 02:16 | 51.40574 | 12.07978 | 2037 ft | 157 kts | 86° |
| 2026-05-07 02:17 | 51.40653 | 12.09627 | 1812 ft | 138 kts | 86° |
| 2026-05-07 02:17 | 51.40722 | 12.11050 | 1645 ft | 121 kts | 86° |
| 2026-05-07 02:17 | 51.40784 | 12.12365 | 1497 ft | 119 kts | 86° |
| 2026-05-07 02:17 | 51.40846 | 12.13671 | 1324 ft | 115 kts | 85° |
| 2026-05-07 02:18 | 51.40902 | 12.14946 | 1173 ft | 116 kts | 84° |
| 2026-05-07 02:18 | 51.40964 | 12.16230 | 1009 ft | 115 kts | 84° |
| 2026-05-07 02:18 | 51.41017 | 12.17503 | 814 ft | 115 kts | 85° |
| 2026-05-07 02:18 | 51.41070 | 12.18799 | 661 ft | 117 kts | 85° |
| 2026-05-07 02:19 | 51.41137 | 12.20067 | 533 ft | 113 kts | 84° |
| 2026-05-07 02:19 | 51.41201 | 12.21292 | 447 ft | 100 kts | 84° |
| 2026-05-07 02:19 | 51.41237 | 12.22032 | 454 ft | 48 kts | 86° |
| 2026-05-07 02:19 | 51.41260 | 12.22495 | 458 ft | 36 kts | 86° |
| 2026-05-07 02:20 | 51.41272 | 12.22832 | 462 ft | 25 kts | 85° |
| 2026-05-07 02:20 | 51.41284 | 12.23070 | 465 ft | 17 kts | 85° |
| 2026-05-07 02:20 | 51.41304 | 12.23224 | 466 ft | 14 kts | 52° |
| 2026-05-07 02:20 | 51.41379 | 12.23249 | 465 ft | 10 kts | 355° |
| 2026-05-07 02:21 | 51.41442 | 12.23242 | 462 ft | 8 kts | 356° |
| 2026-05-07 02:21 | 51.41491 | 12.23236 | 462 ft | 5 kts | 356° |
| 2026-05-07 02:21 | 51.41541 | 12.23230 | 462 ft | 12 kts | 355° |
| 2026-05-07 02:21 | 51.41607 | 12.23178 | 461 ft | 9 kts | 302° |
| 2026-05-07 02:22 | 51.41625 | 12.23091 | 458 ft | 8 kts | 285° |
| 2026-05-07 02:22 | 51.41642 | 12.22987 | 455 ft | 15 kts | 285° |
| 2026-05-07 02:22 | 51.41679 | 12.22777 | 448 ft | 20 kts | 285° |
| 2026-05-07 02:22 | 51.41717 | 12.22560 | 438 ft | 20 kts | 285° |
| 2026-05-07 02:23 | 51.41750 | 12.22341 | 432 ft | 20 kts | 286° |
| 2026-05-07 02:23 | 51.41785 | 12.22155 | 432 ft | 15 kts | 284° |
| 2026-05-07 02:23 | 51.41808 | 12.22017 | 432 ft | 12 kts | 285° |
| 2026-05-07 02:23 | 51.41828 | 12.21896 | 430 ft | 10 kts | 285° |
| 2026-05-07 02:24 | 51.41851 | 12.21761 | 422 ft | 5 kts | 284° |
| 2026-05-07 02:24 | 51.41854 | 12.21745 | 429 ft | 0 kts | 284° |
| 2026-05-07 02:24 | 51.41858 | 12.21723 | 430 ft | 7 kts | 287° |
| 2026-05-07 02:24 | 51.41881 | 12.21595 | 429 ft | 12 kts | 283° |
| 2026-05-07 02:25 | 51.41902 | 12.21464 | 429 ft | 15 kts | 286° |
| 2026-05-07 02:25 | 51.41933 | 12.21289 | 429 ft | 16 kts | 285° |
| 2026-05-07 02:25 | 51.41977 | 12.21096 | 422 ft | 17 kts | 322° |
| 2026-05-07 02:25 | 51.42075 | 12.21108 | 421 ft | 12 kts | 16° |
| 2026-05-07 02:26 | 51.42122 | 12.21171 | 421 ft | 6 kts | 66° |
| 2026-05-07 02:26 | 51.42121 | 12.21230 | 427 ft | 6 kts | 94° |
| 2026-05-07 02:26 | 51.42118 | 12.21273 | 428 ft | 4 kts | 98° |
| 2026-05-07 02:26 | 51.42100 | 12.21326 | 426 ft | 6 kts | 156° |
| 2026-05-07 02:27 | 51.42055 | 12.21316 | 429 ft | 3 kts | 197° |
| 2026-05-07 02:27 | 51.42052 | 12.21315 | 429 ft | 0 kts | 197° |